Time;durP1;ratioP1;P1;durP2;ratioP2;P2;SDS_P1;SDS_P2;PMS_P1;PMS_P2;Temp;Humidity;BMP_temperature;BMP_pressure;BME280_temperature;BME280_humidity;BME280_pressure;Samples;Min_cycle;Max_cycle;Signal;HPM_P1;HPM_P2
2022/03/03 00:02:02;;;;;;;;;74.33;57.67;;;;;9.51;59.72;100873.19;5096869;27;45653;-66
2022/03/03 00:04:28;;;;;;;;;78.00;65.67;;;;;9.51;60.03;100867.94;5096549;27;46161;-68
2022/03/03 00:06:54;;;;;;;;;79.33;65.00;;;;;9.50;59.99;100872.31;5095430;27;45609;-66
2022/03/03 00:09:19;;;;;;;;;71.00;61.00;;;;;9.52;59.90;100871.41;5096839;27;45381;-67
2022/03/03 00:11:45;;;;;;;;;74.00;61.67;;;;;9.50;60.05;100872.31;5097040;27;45467;-65
2022/03/03 00:14:10;;;;;;;;;72.00;60.33;;;;;9.48;60.22;100866.25;5096494;27;46302;-67
2022/03/03 00:16:36;;;;;;;;;76.33;64.00;;;;;9.50;60.18;100864.44;5094980;27;45312;-67
2022/03/03 00:19:02;;;;;;;;;76.33;63.00;;;;;9.49;59.81;100857.47;5095082;27;45674;-66
2022/03/03 00:21:27;;;;;;;;;73.33;57.00;;;;;9.49;60.12;100854.00;5095383;27;45342;-65
2022/03/03 00:23:53;;;;;;;;;74.00;59.67;;;;;9.49;60.04;100851.34;5096539;27;45966;-68
2022/03/03 00:26:18;;;;;;;;;72.67;60.67;;;;;9.52;60.26;100860.91;5094943;27;45506;-68
2022/03/03 00:28:44;;;;;;;;;72.33;56.33;;;;;9.49;60.22;100860.09;5094809;27;45347;-67
2022/03/03 00:31:09;;;;;;;;;73.33;62.67;;;;;9.47;60.02;100859.28;5095030;27;45495;-67
2022/03/03 00:33:34;;;;;;;;;72.67;60.67;;;;;9.48;60.30;100861.00;5095904;27;46612;-65
2022/03/03 00:36:00;;;;;;;;;73.33;59.67;;;;;9.51;60.80;100857.41;5096016;27;45374;-65
2022/03/03 00:38:26;;;;;;;;;73.33;61.67;;;;;9.49;60.25;100856.63;5095099;27;45247;-64
2022/03/03 00:40:51;;;;;;;;;77.67;64.00;;;;;9.53;60.66;100867.88;5094794;27;45596;-66
2022/03/03 00:43:17;;;;;;;;;76.33;63.00;;;;;9.52;60.41;100858.25;5095823;27;45415;-66
2022/03/03 00:45:42;;;;;;;;;76.00;64.33;;;;;9.48;60.31;100863.63;5095506;27;45446;-64
2022/03/03 00:48:08;;;;;;;;;74.00;62.33;;;;;9.51;60.48;100867.94;5095996;27;45439;-66
2022/03/03 00:50:33;;;;;;;;;72.67;59.67;;;;;9.48;60.63;100868.88;5096059;27;45511;-68
2022/03/03 00:52:59;;;;;;;;;79.00;64.67;;;;;9.47;60.67;100866.31;5095879;27;46225;-66
2022/03/03 00:55:25;;;;;;;;;76.33;63.00;;;;;9.46;60.80;100861.97;5095938;27;45380;-65
2022/03/03 00:57:50;;;;;;;;;73.67;60.00;;;;;9.44;60.89;100863.78;5095731;27;45436;-65
2022/03/03 01:00:18;;;;;;;;;75.33;62.00;;;;;9.42;60.84;100870.84;5095936;27;45554;-65
2022/03/03 01:02:45;;;;;;;;;74.33;59.00;;;;;9.40;60.80;100865.63;5095970;27;45511;-66
2022/03/03 01:05:10;;;;;;;;;73.67;62.67;;;;;9.39;60.90;100873.56;5095946;27;45437;-65
2022/03/03 01:07:35;;;;;;;;;69.67;53.00;;;;;9.39;60.93;100871.78;5096030;27;45230;-66
2022/03/03 01:10:01;;;;;;;;;73.67;61.33;;;;;9.39;61.16;100870.94;5096095;27;45627;-66
2022/03/03 01:12:26;;;;;;;;;70.33;58.33;;;;;9.37;61.25;100863.09;5095903;27;45436;-67
2022/03/03 01:14:51;;;;;;;;;71.00;60.67;;;;;9.38;60.94;100864.81;5095441;27;45420;-66
2022/03/03 01:17:17;;;;;;;;;72.67;57.67;;;;;9.36;61.10;100869.25;5094019;27;45903;-65
2022/03/03 01:19:42;;;;;;;;;71.67;54.00;;;;;9.37;61.16;100867.50;5094336;27;45533;-66
2022/03/03 01:22:08;;;;;;;;;74.67;58.33;;;;;9.35;61.10;100868.41;5076820;27;47308;-65
2022/03/03 01:24:34;;;;;;;;;72.33;61.00;;;;;9.33;61.31;100871.97;5095545;27;45561;-64
2022/03/03 01:27:00;;;;;;;;;74.33;64.00;;;;;9.32;61.25;100870.25;5096005;27;45422;-64
2022/03/03 01:29:25;;;;;;;;;74.67;58.00;;;;;9.31;60.95;100863.28;5095781;27;45468;-66
2022/03/03 01:31:51;;;;;;;;;73.67;59.33;;;;;9.28;61.77;100858.13;5095587;27;45340;-65
2022/03/03 01:34:16;;;;;;;;;76.00;61.33;;;;;9.27;61.42;100862.53;5095789;27;45318;-65
2022/03/03 01:36:43;;;;;;;;;74.33;61.33;;;;;9.25;61.36;100858.22;5095555;27;45229;-69
2022/03/03 01:39:09;;;;;;;;;72.67;55.67;;;;;9.25;61.86;100847.72;5096005;27;45180;-65
2022/03/03 01:41:34;;;;;;;;;73.00;57.33;;;;;9.23;61.94;100852.16;5095467;27;45222;-68
2022/03/03 01:44:00;;;;;;;;;73.67;62.67;;;;;9.21;61.92;100853.06;5094330;27;45698;-65
2022/03/03 01:46:25;;;;;;;;;77.00;62.33;;;;;9.20;61.82;100856.59;5095896;27;45600;-69
2022/03/03 01:48:51;;;;;;;;;68.33;53.33;;;;;9.19;61.85;100848.78;5095813;27;45219;-65
2022/03/03 01:51:16;;;;;;;;;75.67;66.00;;;;;9.19;61.90;100856.66;5095195;27;45396;-65
2022/03/03 01:53:42;;;;;;;;;75.00;62.00;;;;;9.19;62.28;100854.88;5095104;27;45483;-65
2022/03/03 01:56:08;;;;;;;;;73.67;60.33;;;;;9.23;62.39;100847.78;5095845;27;45377;-68
2022/03/03 01:58:33;;;;;;;;;75.00;55.00;;;;;9.25;62.48;100843.34;5098646;27;45463;-71
2022/03/03 02:00:59;;;;;;;;;73.67;60.67;;;;;9.33;62.55;100845.72;5098951;27;46142;-67
2022/03/03 02:03:25;;;;;;;;;72.00;56.67;;;;;9.38;62.57;100841.19;5100153;27;45429;-79
2022/03/03 02:05:51;;;;;;;;;72.00;56.67;;;;;9.45;62.40;100839.25;5085360;27;45589;-65
2022/03/03 02:08:17;;;;;;;;;76.33;61.67;;;;;9.53;62.42;100838.97;5095469;27;45582;-72
2022/03/03 02:10:42;;;;;;;;;74.67;62.00;;;;;9.58;62.45;100843.19;5108114;27;46580;-74
2022/03/03 02:13:08;;;;;;;;;72.67;60.00;;;;;9.64;62.63;100835.13;5099754;27;45439;-68
2022/03/03 02:15:34;;;;;;;;;72.67;57.67;;;;;9.71;62.42;100834.91;5097673;27;45339;-75
2022/03/03 02:18:00;;;;;;;;;72.67;58.67;;;;;9.75;62.48;100832.16;5099301;27;45593;-65
2022/03/03 02:20:27;;;;;;;;;73.00;60.33;;;;;9.84;62.34;100833.59;5098643;27;46353;-70
2022/03/03 02:22:55;;;;;;;;;68.00;54.00;;;;;9.91;62.40;100834.28;5097601;27;45421;-75
2022/03/03 02:25:22;;;;;;;;;71.67;53.67;;;;;9.97;62.14;100834.06;5114580;27;45375;-67
2022/03/03 02:27:48;;;;;;;;;68.67;54.33;;;;;10.03;62.00;100833.84;5099059;27;45584;-70
2022/03/03 02:30:17;;;;;;;;;68.33;52.33;;;;;10.07;61.90;100834.59;5098308;27;45338;-66
2022/03/03 02:32:44;;;;;;;;;69.67;55.33;;;;;10.07;62.17;100837.22;5098406;27;45918;-69
2022/03/03 02:35:10;;;;;;;;;75.00;59.00;;;;;10.08;61.95;100829.28;5114570;27;45332;-76
2022/03/03 02:37:41;;;;;;;;;71.33;54.00;;;;;10.09;61.92;100831.00;5098657;27;45443;-71
2022/03/03 02:40:09;;;;;;;;;73.33;60.33;;;;;10.11;61.75;100830.97;5113508;27;46324;-72
2022/03/03 02:42:35;;;;;;;;;74.33;61.67;;;;;10.14;61.79;100830.00;5098264;27;45649;-73
2022/03/03 02:45:04;;;;;;;;;75.33;59.00;;;;;10.12;61.79;100824.81;5113038;27;45555;-73
2022/03/03 02:47:29;;;;;;;;;77.00;64.00;;;;;10.14;61.69;100825.63;5114844;27;45502;-73
2022/03/03 02:49:55;;;;;;;;;76.33;58.33;;;;;10.15;61.66;100822.06;5097934;27;45813;-73
2022/03/03 02:52:20;;;;;;;;;75.00;60.33;;;;;10.17;61.78;100822.00;5112505;27;45484;-68
2022/03/03 02:54:46;;;;;;;;;76.67;60.33;;;;;10.17;61.50;100817.63;5097547;27;45564;-69
2022/03/03 02:59:55;;;;;;;;;75.00;58.67;;;;;10.21;61.56;100813.09;5097828;27;45822;-70
2022/03/03 03:02:20;;;;;;;;;77.67;59.67;;;;;10.22;61.82;100805.19;5098085;27;45219;-73
2022/03/03 03:04:46;;;;;;;;;74.00;59.67;;;;;10.21;61.77;100802.59;5097927;27;45620;-69
2022/03/03 03:07:11;;;;;;;;;76.67;59.33;;;;;10.23;61.37;100812.16;5097823;27;45548;-68
2022/03/03 03:09:37;;;;;;;;;72.67;57.33;;;;;10.29;61.81;100810.22;5097823;27;45366;-72
2022/03/03 03:12:03;;;;;;;;;71.67;54.67;;;;;10.28;61.43;100798.81;5097999;27;45452;-63
2022/03/03 03:14:28;;;;;;;;;77.33;57.00;;;;;10.30;61.43;100794.38;5097762;27;45258;-66
2022/03/03 03:16:54;;;;;;;;;74.33;58.00;;;;;10.31;61.80;100792.63;5097807;27;45262;-64
2022/03/03 03:19:19;;;;;;;;;74.67;58.67;;;;;10.32;61.34;100789.06;5097200;27;46057;-72
2022/03/03 03:21:44;;;;;;;;;76.00;59.67;;;;;10.32;61.43;100787.28;5097382;27;45402;-75
2022/03/03 03:24:10;;;;;;;;;73.25;58.00;;;;;10.34;61.63;100789.88;5097575;27;45276;-65
2022/03/03 03:26:35;;;;;;;;;70.33;54.67;;;;;10.36;61.57;100781.00;5098114;27;45594;-67
2022/03/03 03:29:01;;;;;;;;;77.33;58.67;;;;;10.35;61.66;100774.03;5097860;27;45351;-70
2022/03/03 03:31:27;;;;;;;;;70.67;57.00;;;;;10.38;61.30;100783.59;5097437;27;45520;-68
2022/03/03 03:33:52;;;;;;;;;75.33;59.67;;;;;10.39;61.49;100774.78;5097447;27;45275;-71
2022/03/03 03:36:18;;;;;;;;;75.33;60.33;;;;;10.41;61.58;100774.75;5097816;27;45319;-75
2022/03/03 03:38:43;;;;;;;;;72.00;57.67;;;;;10.40;61.34;100767.78;5097715;27;45338;-72
2022/03/03 03:41:08;;;;;;;;;69.00;54.33;;;;;10.33;61.63;100754.81;5097548;27;47875;-75
2022/03/03 03:43:34;;;;;;;;;73.33;57.33;;;;;10.36;62.00;100764.38;5098356;27;45630;-74
2022/03/03 03:45:59;;;;;;;;;73.00;57.00;;;;;10.37;61.33;100760.84;5098008;27;45565;-70
2022/03/03 03:48:24;;;;;;;;;74.00;57.00;;;;;10.36;61.73;100759.97;5097457;27;46064;-73
2022/03/03 03:50:50;;;;;;;;;74.67;58.00;;;;;10.37;61.67;100766.09;5097407;27;45152;-75
2022/03/03 03:53:16;;;;;;;;;72.33;56.67;;;;;10.36;61.53;100762.59;5096048;27;45363;-72
2022/03/03 03:55:41;;;;;;;;;69.00;56.33;;;;;10.32;61.75;100758.34;5113105;27;45622;-71
2022/03/03 03:58:07;;;;;;;;;75.67;61.00;;;;;10.34;61.96;100756.53;5097345;27;45493;-66
2022/03/03 04:00:32;;;;;;;;;69.00;56.00;;;;;10.31;61.81;100754.00;5113994;27;45368;-74
2022/03/03 04:02:57;;;;;;;;;74.75;56.75;;;;;10.30;62.10;100749.66;5099241;27;45469;-70
2022/03/03 04:05:24;;;;;;;;;74.00;57.67;;;;;10.32;62.03;100755.72;5098144;27;45631;-75
2022/03/03 04:07:49;;;;;;;;;68.67;55.33;;;;;10.37;61.98;100759.06;5097368;27;46558;-70
2022/03/03 04:10:15;;;;;;;;;66.67;52.00;;;;;10.38;62.01;100752.03;5096907;27;45315;-71
2022/03/03 04:12:41;;;;;;;;;69.67;55.00;;;;;10.41;62.21;100749.31;5097004;27;45407;-70
2022/03/03 04:15:08;;;;;;;;;67.75;53.75;;;;;10.44;62.37;100743.06;5097538;27;45234;-67
2022/03/03 04:17:34;;;;;;;;;67.75;53.75;;;;;10.44;62.19;100735.19;5096881;27;46205;-69
2022/03/03 04:19:59;;;;;;;;;71.25;54.25;;;;;10.46;62.72;100736.00;5096120;27;45324;-67
2022/03/03 04:22:24;;;;;;;;;70.50;53.75;;;;;10.47;62.27;100732.44;5112822;27;45254;-71
2022/03/03 04:24:50;;;;;;;;;70.00;54.25;;;;;10.47;62.51;100732.44;5112922;27;45438;-68
2022/03/03 04:27:16;;;;;;;;;70.75;54.25;;;;;10.46;62.98;100728.09;5094913;27;48088;-73
2022/03/03 04:29:43;;;;;;;;;68.75;50.50;;;;;10.48;63.16;100721.00;5096107;27;45416;-68
2022/03/03 04:32:09;;;;;;;;;63.25;52.00;;;;;10.48;63.21;100721.00;5096492;27;45365;-71
2022/03/03 04:34:35;;;;;;;;;75.25;57.50;;;;;10.47;63.40;100719.28;5112520;27;45493;-69
2022/03/03 04:37:01;;;;;;;;;70.25;54.00;;;;;10.48;63.25;100718.38;5095841;27;46059;-69
2022/03/03 04:39:27;;;;;;;;;68.25;52.75;;;;;10.46;62.99;100714.94;5096298;27;45323;-67
2022/03/03 04:41:52;;;;;;;;;67.50;53.25;;;;;10.44;63.05;100709.75;5096763;27;45405;-73
2022/03/03 04:44:18;;;;;;;;;70.00;54.50;;;;;10.46;63.40;100712.31;5112826;27;45269;-71
2022/03/03 04:46:44;;;;;;;;;62.25;49.25;;;;;10.45;63.29;100710.59;5096056;27;46079;-69
2022/03/03 04:49:09;;;;;;;;;69.50;54.00;;;;;10.42;63.35;100708.97;5112234;27;45260;-73
2022/03/03 04:51:36;;;;;;;;;66.75;52.50;;;;;10.40;63.66;100708.16;5096412;27;45415;-74
2022/03/03 04:54:04;;;;;;;;;68.75;54.50;;;;;10.38;63.49;100708.16;5096137;27;45335;-75
2022/03/03 04:56:29;;;;;;;;;69.75;54.75;;;;;10.41;63.45;100702.00;5095724;27;46941;-67
2022/03/03 04:58:55;;;;;;;;;67.25;52.00;;;;;10.41;63.86;100698.50;5095708;27;45348;-68
2022/03/03 05:01:20;;;;;;;;;71.00;54.00;;;;;10.41;64.10;100696.72;5096336;27;45367;-67
2022/03/03 05:03:45;;;;;;;;;70.00;53.25;;;;;10.40;64.04;100687.13;5096478;27;45427;-70
2022/03/03 05:06:11;;;;;;;;;67.50;52.50;;;;;10.41;64.07;100696.72;5095510;27;47445;-66
2022/03/03 05:08:36;;;;;;;;;69.00;52.75;;;;;10.41;63.80;100698.50;5097328;27;45422;-73
2022/03/03 05:11:02;;;;;;;;;66.50;52.50;;;;;10.42;64.39;100695.81;5112264;27;45395;-69
2022/03/03 05:13:27;;;;;;;;;66.00;52.25;;;;;10.41;64.37;100695.84;5096298;27;45423;-72
2022/03/03 05:15:53;;;;;;;;;62.75;49.25;;;;;10.38;64.19;100695.03;5096338;27;46176;-74
2022/03/03 05:18:18;;;;;;;;;64.00;51.00;;;;;10.42;64.32;100694.94;5095978;27;45328;-74
2022/03/03 05:20:43;;;;;;;;;66.75;49.75;;;;;10.40;64.59;100695.00;5095815;27;45743;-74
2022/03/03 05:23:09;;;;;;;;;66.25;51.25;;;;;10.39;64.65;100693.28;5096268;27;45442;-71
2022/03/03 05:25:34;;;;;;;;;65.75;52.50;;;;;10.41;65.05;100698.50;5094367;27;46895;-75
2022/03/03 05:28:00;;;;;;;;;68.25;53.50;;;;;10.40;65.52;100688.88;5096967;27;45317;-73
2022/03/03 05:30:26;;;;;;;;;64.75;49.50;;;;;10.40;65.63;100691.50;5097508;27;45266;-74
2022/03/03 05:32:52;;;;;;;;;69.75;53.75;;;;;10.40;65.27;100694.13;5102627;27;45333;-73
2022/03/03 05:35:18;;;;;;;;;60.75;48.75;;;;;10.43;65.63;100694.03;5101616;27;46771;-72
2022/03/03 05:37:46;;;;;;;;;72.25;56.00;;;;;10.43;66.10;100692.28;5100733;27;45407;-70
2022/03/03 05:40:11;;;;;;;;;59.00;47.25;;;;;10.43;66.37;100694.91;5098703;27;45453;-67
2022/03/03 05:42:37;;;;;;;;;60.75;48.50;;;;;10.43;66.19;100697.53;5098254;27;45219;-70
2022/03/03 05:45:03;;;;;;;;;60.75;49.75;;;;;10.40;66.74;100695.00;5099358;27;45290;-71
2022/03/03 05:47:29;;;;;;;;;66.50;50.50;;;;;10.44;66.58;100693.09;5098952;27;45244;-72
2022/03/03 05:49:55;;;;;;;;;63.00;48.25;;;;;10.44;66.92;100691.34;5098959;27;45329;-68
2022/03/03 05:52:20;;;;;;;;;64.50;49.00;;;;;10.46;67.42;100693.91;5099995;27;45482;-73
2022/03/03 05:54:46;;;;;;;;;60.75;47.25;;;;;10.41;67.56;100691.47;5116038;27;47288;-69
2022/03/03 05:57:27;;;;;;;;;62.00;48.00;;;;;10.46;67.82;100701.78;5097745;27;45592;-69
2022/03/03 05:59:56;;;;;;;;;57.50;48.00;;;;;10.46;67.76;100701.78;5099065;27;45397;-72
2022/03/03 06:02:21;;;;;;;;;63.00;50.00;;;;;10.45;67.64;100702.72;5099352;27;45226;-74
2022/03/03 06:04:48;;;;;;;;;63.00;47.50;;;;;10.40;68.55;100700.28;5098481;27;46186;-72
2022/03/03 06:07:27;;;;;;;;;64.00;49.25;;;;;10.38;68.65;100692.41;5098625;27;45381;-70
2022/03/03 06:09:56;;;;;;;;;56.00;45.00;;;;;10.40;68.92;100688.88;5098852;27;45286;-73
2022/03/03 06:12:48;;;;;;;;;63.00;47.25;;;;;10.42;68.95;100697.56;5099043;27;45431;-72
2022/03/03 06:15:14;;;;;;;;;61.25;47.25;;;;;10.41;69.34;100693.22;5101684;27;45234;-65
2022/03/03 06:17:42;;;;;;;;;61.00;48.75;;;;;10.42;69.19;100693.19;5099494;27;45156;-69
2022/03/03 06:20:08;;;;;;;;;61.75;47.00;;;;;10.48;69.67;100697.34;5098967;27;45401;-74
2022/03/03 06:22:34;;;;;;;;;53.75;43.25;;;;;10.48;69.33;100695.59;5098666;27;45592;-73
2022/03/03 06:24:59;;;;;;;;;61.00;47.00;;;;;10.50;69.66;100703.41;5096761;27;45474;-73
2022/03/03 06:27:26;;;;;;;;;56.50;46.50;;;;;10.43;69.51;100691.41;5098105;27;45348;-73
2022/03/03 06:29:54;;;;;;;;;57.75;45.25;;;;;10.51;70.19;100707.75;5097011;27;45497;-71
2022/03/03 06:32:19;;;;;;;;;58.75;43.25;;;;;10.52;69.85;100710.31;5098715;27;45406;-69
2022/03/03 06:34:45;;;;;;;;;52.25;42.75;;;;;10.54;69.80;100710.25;5097988;27;46199;-69
2022/03/03 06:37:10;;;;;;;;;59.75;47.25;;;;;10.56;70.30;100708.41;5098231;27;45202;-71
2022/03/03 06:39:39;;;;;;;;;60.25;46.25;;;;;10.57;70.24;100715.41;5100803;27;45353;-73
2022/03/03 06:42:05;;;;;;;;;64.50;48.50;;;;;10.54;70.35;100712.88;5097768;27;45310;-71
2022/03/03 06:44:30;;;;;;;;;56.25;45.75;;;;;10.57;70.34;100715.41;5096657;27;47247;-76
2022/03/03 06:46:56;;;;;;;;;63.50;50.00;;;;;10.59;70.75;100720.63;5097913;27;45341;-73
2022/03/03 06:49:21;;;;;;;;;57.25;43.50;;;;;10.61;70.54;100718.78;5098031;27;45296;-74
2022/03/03 06:51:54;;;;;;;;;61.25;47.75;;;;;10.61;70.67;100724.91;5098197;27;45499;-73
2022/03/03 06:54:21;;;;;;;;;56.25;45.75;;;;;10.61;70.86;100721.41;5097290;27;46347;-75
2022/03/03 06:56:49;;;;;;;;;59.00;47.50;;;;;10.63;71.14;100717.81;5097293;27;45318;-73
2022/03/03 06:59:18;;;;;;;;;59.50;46.25;;;;;10.65;70.92;100723.88;5099953;27;45257;-71
2022/03/03 07:01:46;;;;;;;;;63.50;47.25;;;;;10.69;70.72;100721.13;5114313;27;45263;-67
2022/03/03 07:04:13;;;;;;;;;62.25;47.75;;;;;10.70;70.64;100721.06;5098553;27;46081;-72
2022/03/03 07:06:39;;;;;;;;;60.00;47.50;;;;;10.72;70.32;100724.50;5099468;27;45212;-74
2022/03/03 07:09:04;;;;;;;;;55.50;46.25;;;;;10.76;70.74;100725.25;5099336;27;45300;-73
2022/03/03 07:11:30;;;;;;;;;60.50;47.75;;;;;10.80;71.16;100718.94;5099898;27;45497;-73
2022/03/03 07:13:58;;;;;;;;;56.50;45.50;;;;;10.80;70.44;100711.06;5097284;27;46055;-72
2022/03/03 07:16:45;;;;;;;;;62.50;49.25;;;;;10.79;70.99;100707.53;5097707;27;45409;-75
2022/03/03 07:19:37;;;;;;;;;60.75;47.00;;;;;10.84;70.96;100707.38;5106382;27;45581;-70
2022/03/03 07:22:35;;;;;;;;;61.00;48.00;;;;;10.96;70.61;100725.31;5079745;27;45498;-79
2022/03/03 07:25:06;;;;;;;;;64.50;48.50;;;;;10.98;70.87;100725.25;5101150;27;47237;-70
2022/03/03 07:27:33;;;;;;;;;55.75;44.75;;;;;10.98;71.17;100727.88;5096914;27;45500;-69
2022/03/03 07:30:05;;;;;;;;;64.00;48.50;;;;;11.05;70.82;100717.97;5102648;27;45421;-72
2022/03/03 07:32:46;;;;;;;;;59.00;48.00;;;;;11.09;70.69;100719.56;5093053;27;45292;-67
2022/03/03 07:35:14;;;;;;;;;60.25;45.25;;;;;11.14;70.45;100725.50;5077312;27;46491;-68
2022/03/03 07:37:49;;;;;;;;;59.25;46.50;;;;;11.19;70.74;100720.91;5075661;27;45478;-66
2022/03/03 07:40:16;;;;;;;;;61.00;48.00;;;;;11.25;70.48;100723.28;5093956;27;45511;-69
2022/03/03 07:42:42;;;;;;;;;55.00;44.75;;;;;11.30;70.29;100725.75;5092153;27;45304;-76
2022/03/03 07:45:08;;;;;;;;;65.25;49.00;;;;;11.31;69.72;100722.19;5087791;27;47190;-67
2022/03/03 07:47:35;;;;;;;;;61.00;47.25;;;;;11.37;70.37;100721.94;5095428;27;46365;-73
2022/03/03 07:50:01;;;;;;;;;53.25;41.25;;;;;11.44;69.78;100721.69;5096503;27;45475;-71
2022/03/03 07:52:26;;;;;;;;;62.50;47.25;;;;;11.47;69.74;100719.75;5111363;27;45492;-68
2022/03/03 07:54:53;;;;;;;;;59.75;45.25;;;;;11.51;69.47;100718.72;5117497;27;46209;-70
2022/03/03 07:57:22;;;;;;;;;54.75;42.75;;;;;11.51;69.76;100713.44;5116750;27;45191;-70
2022/03/03 07:59:53;;;;;;;;;57.75;45.75;;;;;11.57;69.31;100722.00;5117863;27;45422;-69
2022/03/03 08:02:22;;;;;;;;;56.50;44.75;;;;;11.62;69.72;100720.03;5118024;27;45399;-68
2022/03/03 08:04:50;;;;;;;;;57.00;44.25;;;;;11.70;69.69;100717.97;5115946;27;45522;-70
2022/03/03 08:07:17;;;;;;;;;54.25;43.25;;;;;11.77;69.10;100718.53;5117579;27;45376;-69
2022/03/03 08:09:46;;;;;;;;;62.25;45.25;;;;;11.82;69.29;100716.56;5117282;27;45305;-71
2022/03/03 08:12:14;;;;;;;;;58.75;47.25;;;;;11.86;68.75;100710.22;5115824;27;45274;-69
2022/03/03 08:14:40;;;;;;;;;59.25;46.25;;;;;11.91;68.56;100710.03;5116722;27;45341;-67
2022/03/03 08:17:07;;;;;;;;;57.75;46.00;;;;;12.00;68.68;100709.66;5116994;27;45281;-67
2022/03/03 08:19:33;;;;;;;;;60.00;46.00;;;;;12.08;69.02;100714.59;5114454;27;45802;-69
2022/03/03 08:21:58;;;;;;;;;59.50;47.50;;;;;12.16;68.34;100716.88;5117257;27;45245;-70
2022/03/03 08:24:26;;;;;;;;;65.00;46.75;;;;;12.21;68.46;100712.25;5117117;27;45186;-70
2022/03/03 08:26:55;;;;;;;;;54.50;41.00;;;;;12.25;68.12;100712.06;5117116;27;45388;-69
2022/03/03 08:29:22;;;;;;;;;57.25;45.75;;;;;12.33;67.79;100708.22;5117235;27;45376;-66
2022/03/03 08:31:52;;;;;;;;;55.75;44.50;;;;;12.39;67.63;100707.94;5117239;27;45341;-69
2022/03/03 08:34:21;;;;;;;;;58.75;44.25;;;;;12.46;67.94;100709.38;5115346;27;46474;-72
2022/03/03 08:36:54;;;;;;;;;57.25;44.50;;;;;12.50;67.58;100704.78;5116935;27;45322;-69
2022/03/03 08:39:23;;;;;;;;;55.50;43.50;;;;;12.59;67.13;100707.00;5116880;27;45332;-69
2022/03/03 08:41:54;;;;;;;;;55.25;44.25;;;;;12.73;66.69;100710.81;5118565;27;45209;-72
2022/03/03 08:44:19;;;;;;;;;53.25;43.00;;;;;12.81;66.85;100709.50;5132646;27;46149;-71
2022/03/03 08:46:47;;;;;;;;;52.00;40.50;;;;;12.89;66.30;100709.16;5116525;27;45349;-70
2022/03/03 08:49:13;;;;;;;;;54.50;41.50;;;;;12.98;66.36;100721.91;5116501;27;45185;-68
2022/03/03 08:51:40;;;;;;;;;57.50;43.75;;;;;13.02;66.20;100714.69;5116827;27;45431;-69
2022/03/03 08:54:06;;;;;;;;;54.75;43.25;;;;;13.12;65.67;100712.47;5116423;27;45445;-69
2022/03/03 08:56:32;;;;;;;;;52.00;41.25;;;;;13.14;65.63;100711.44;5116489;27;45450;-67
2022/03/03 08:58:58;;;;;;;;;55.75;42.00;;;;;13.22;65.65;100713.72;5115095;27;45401;-67
2022/03/03 09:01:24;;;;;;;;;50.25;41.50;;;;;13.24;65.57;100719.78;5117082;27;45477;-70
2022/03/03 09:03:49;;;;;;;;;53.75;41.50;;;;;13.29;65.28;100712.47;5116791;27;45321;-70
2022/03/03 09:06:16;;;;;;;;;56.75;45.75;;;;;13.36;65.08;100722.75;5121442;27;45418;-65
2022/03/03 09:08:41;;;;;;;;;48.50;40.00;;;;;13.38;65.03;100719.09;5123163;27;45246;-67
2022/03/03 09:11:07;;;;;;;;;54.50;43.75;;;;;13.46;64.78;100717.91;5123046;27;45231;-70
2022/03/03 09:13:34;;;;;;;;;56.25;44.00;;;;;13.54;65.13;100721.84;5123076;27;45923;-70
2022/03/03 09:15:59;;;;;;;;;56.25;42.50;;;;;13.68;64.34;100729.09;5123219;27;45227;-68
2022/03/03 09:18:25;;;;;;;;;58.50;45.00;;;;;13.79;64.03;100719.75;5123199;27;45361;-66
2022/03/03 09:20:51;;;;;;;;;57.75;43.75;;;;;13.82;63.98;100725.75;5123553;27;45587;-68
2022/03/03 09:23:16;;;;;;;;;55.75;44.00;;;;;13.88;63.87;100721.91;5123034;27;45443;-70
2022/03/03 09:25:43;;;;;;;;;53.25;41.25;;;;;13.93;63.51;100726.97;5122997;27;45417;-69
2022/03/03 09:28:09;;;;;;;;;60.75;45.25;;;;;13.97;63.26;100724.09;5123239;27;45367;-69
2022/03/03 09:30:36;;;;;;;;;51.75;41.50;;;;;14.02;63.05;100722.06;5123131;27;45583;-67
2022/03/03 09:33:01;;;;;;;;;50.00;40.00;;;;;14.06;63.03;100725.41;5121349;27;45988;-69
2022/03/03 09:35:27;;;;;;;;;50.00;39.50;;;;;14.14;62.66;100728.50;5123224;27;45331;-70
2022/03/03 09:37:53;;;;;;;;;53.00;40.50;;;;;14.16;62.77;100723.97;5123362;27;45205;-68
2022/03/03 09:40:18;;;;;;;;;53.75;39.75;;;;;14.14;62.39;100719.69;5123355;27;45614;-70
2022/03/03 09:42:57;;;;;;;;;52.50;40.75;;;;;14.18;62.51;100721.25;5122951;27;46010;-69
2022/03/03 09:45:23;;;;;;;;;54.50;43.25;;;;;14.18;62.15;100718.59;5122959;27;45426;-70
2022/03/03 09:47:49;;;;;;;;;50.50;40.25;;;;;14.22;62.46;100714.84;5122935;27;45278;-73
2022/03/03 09:50:15;;;;;;;;;51.25;39.75;;;;;14.21;61.84;100715.78;5123109;27;45482;-72
2022/03/03 09:52:43;;;;;;;;;48.00;39.50;;;;;14.24;61.75;100720.91;5138689;27;45871;-68
2022/03/03 09:55:08;;;;;;;;;51.50;39.50;;;;;14.22;61.79;100720.13;5122812;27;45377;-71
2022/03/03 09:57:35;;;;;;;;;47.25;39.75;;;;;14.23;61.60;100723.66;5122461;27;45283;-69
2022/03/03 10:00:03;;;;;;;;;49.50;37.00;;;;;14.15;61.50;100724.91;5122962;27;45566;-70
2022/03/03 10:02:28;;;;;;;;;49.25;38.50;;;;;14.11;61.74;100726.00;5122641;27;47540;-72
2022/03/03 10:04:55;;;;;;;;;48.00;40.25;;;;;14.09;61.61;100717.31;5122461;27;45329;-71
2022/03/03 10:07:23;;;;;;;;;49.50;39.25;;;;;14.13;61.59;100723.28;5121454;27;45420;-69
2022/03/03 10:10:00;;;;;;;;;53.75;42.00;;;;;14.20;61.63;100723.81;5123347;27;45557;-69
2022/03/03 10:12:30;;;;;;;;;51.25;42.25;;;;;14.25;61.39;100719.13;5122604;27;46324;-71
2022/03/03 10:15:00;;;;;;;;;49.00;40.25;;;;;14.27;61.39;100718.09;5122536;27;45365;-68
2022/03/03 10:17:38;;;;;;;;;52.50;41.25;;;;;14.31;61.14;100717.03;5119663;27;45270;-70
2022/03/03 10:20:06;;;;;;;;;51.25;39.75;;;;;14.39;61.32;100721.88;5117866;27;45307;-70
2022/03/03 10:22:46;;;;;;;;;53.00;40.75;;;;;14.49;60.84;100716.97;5118754;27;46853;-71
2022/03/03 10:25:28;;;;;;;;;52.00;42.50;;;;;14.60;60.80;100713.72;5117276;27;45494;-72
2022/03/03 10:27:53;;;;;;;;;47.25;38.75;;;;;14.69;60.24;100713.19;5119200;27;45221;-72
2022/03/03 10:30:19;;;;;;;;;51.25;40.75;;;;;14.70;60.24;100717.59;5118624;27;45492;-69
2022/03/03 10:32:44;;;;;;;;;51.00;41.50;;;;;14.70;59.93;100701.69;5118616;27;45458;-69
2022/03/03 10:35:15;;;;;;;;;54.75;43.25;;;;;14.75;59.89;100706.75;5118999;27;45412;-69
2022/03/03 10:37:42;;;;;;;;;51.50;41.25;;;;;14.79;59.73;100710.06;5118470;27;45364;-69
2022/03/03 10:40:11;;;;;;;;;57.25;43.00;;;;;14.78;59.51;100703.94;5118710;27;45232;-69
2022/03/03 10:42:40;;;;;;;;;55.50;43.00;;;;;14.77;59.49;100704.00;5118272;27;47227;-67
2022/03/03 10:45:16;;;;;;;;;56.75;43.75;;;;;14.68;59.83;100708.00;5118128;27;45389;-68
2022/03/03 10:47:46;;;;;;;;;56.75;44.75;;;;;14.59;59.95;100704.06;5118513;27;45318;-69
2022/03/03 10:50:12;;;;;;;;;56.75;45.50;;;;;14.55;60.32;100713.09;5118834;27;45392;-67
2022/03/03 10:52:40;;;;;;;;;56.25;43.00;;;;;14.46;60.22;100702.09;5118709;27;45447;-71
2022/03/03 10:55:20;;;;;;;;;54.75;44.00;;;;;14.44;60.71;100705.78;5118613;27;45393;-72
2022/03/03 10:57:51;;;;;;;;;59.25;44.75;;;;;14.46;60.38;100711.84;5118768;27;45259;-73
2022/03/03 11:00:23;;;;;;;;;58.75;46.00;;;;;14.50;60.65;100710.72;5117647;27;45267;-71
2022/03/03 11:03:02;;;;;;;;;58.25;45.50;;;;;14.54;60.26;100699.03;5118298;27;46369;-70
2022/03/03 11:05:29;;;;;;;;;55.25;42.75;;;;;14.49;60.04;100706.38;5118556;27;45451;-72
2022/03/03 11:07:56;;;;;;;;;51.75;43.00;;;;;14.41;60.17;100696.19;5118588;27;45376;-69
2022/03/03 11:10:25;;;;;;;;;53.75;42.75;;;;;14.39;60.12;100703.38;5118401;27;45485;-70
2022/03/03 11:12:51;;;;;;;;;50.25;40.00;;;;;14.42;59.98;100697.06;5118012;27;46118;-70
2022/03/03 11:15:19;;;;;;;;;53.25;41.25;;;;;14.49;60.10;100703.72;5118185;27;45384;-70